createdAt,value
2019-04-21T00:01:30.686Z,101763.59
2019-04-21T00:04:12.453Z,101768.73
2019-04-21T00:07:01.243Z,101769.77
2019-04-21T00:09:37.758Z,101769.55
2019-04-21T00:12:05.980Z,101764.82
2019-04-21T00:14:29.183Z,101775.57
2019-04-21T00:16:57.461Z,101770.02
2019-04-21T00:19:28.438Z,101766.98
2019-04-21T00:22:11.416Z,101767.01
2019-04-21T00:24:44.464Z,101773.39
2019-04-21T00:27:26.596Z,101768.52
2019-04-21T00:30:00.227Z,101768.25
2019-04-21T00:32:25.354Z,101775.88
2019-04-21T00:34:51.172Z,101775.91
2019-04-21T00:37:31.827Z,101769.77
2019-04-21T00:40:28.035Z,101767.28
2019-04-21T00:42:43.174Z,101766.06
2019-04-21T00:45:16.230Z,101771.66
2019-04-21T00:47:51.022Z,101770.70
2019-04-21T00:50:33.765Z,101776.23
2019-04-21T00:53:29.631Z,101770.41
2019-04-21T00:56:04.130Z,101771.69
2019-04-21T00:58:33.275Z,101773.11
2019-04-21T01:01:01.617Z,101773.07
2019-04-21T01:03:43.270Z,101773.27
2019-04-21T01:06:19.131Z,101774.25
2019-04-21T01:08:40.990Z,101780.95
2019-04-21T01:11:17.891Z,101776.25
2019-04-21T01:13:58.029Z,101774.84
2019-04-21T01:16:28.823Z,101779.08
2019-04-21T01:18:54.855Z,101776.04
2019-04-21T01:21:14.222Z,101776.52
2019-04-21T01:23:44.576Z,101777.89
2019-04-21T01:26:31.107Z,101779.73
2019-04-21T01:29:08.633Z,101779.11
2019-04-21T01:31:42.239Z,101778.51
2019-04-21T01:34:14.980Z,101778.98
2019-04-21T01:36:47.489Z,101777.20
2019-04-21T01:39:29.695Z,101769.90
2019-04-21T01:41:57.425Z,101773.15
2019-04-21T01:44:36.210Z,101769.48
2019-04-21T01:46:59.802Z,101773.86
2019-04-21T01:49:33.374Z,101768.80
2019-04-21T01:52:24.763Z,101770.95
2019-04-21T01:54:55.919Z,101767.78
2019-04-21T01:57:33.413Z,101769.78
2019-04-21T01:59:58.574Z,101766.73
2019-04-21T02:02:41.421Z,101771.34
2019-04-21T02:05:18.824Z,101765.23
2019-04-21T02:07:44.317Z,101766.23
2019-04-21T02:10:20.863Z,101769.84
2019-04-21T02:12:51.086Z,101764.16
2019-04-21T02:15:29.748Z,101772.52
2019-04-21T02:17:59.520Z,101768.05
2019-04-21T02:20:26.880Z,101771.31
2019-04-21T02:23:22.336Z,101769.87
2019-04-21T02:25:38.389Z,101773.89
2019-04-21T02:28:21.161Z,101772.69
2019-04-21T02:36:20.705Z,101777.75
2019-04-21T02:38:48.216Z,101775.86
2019-04-21T02:41:07.620Z,101786.48
2019-04-21T02:43:44.873Z,101778.01
2019-04-21T02:46:27.742Z,101781.94
2019-04-21T02:49:01.003Z,101778.77
2019-04-21T02:51:28.164Z,101778.16
2019-04-21T02:54:32.350Z,101782.72
2019-04-21T02:56:34.466Z,101780.57
2019-04-21T02:59:17.097Z,101786.52
2019-04-21T03:07:24.347Z,101787.18
2019-04-21T03:17:48.758Z,101793.84
2019-04-21T03:22:38.194Z,101800.44
2019-04-21T03:25:25.249Z,101796.84
2019-04-21T03:27:56.917Z,101806.63
2019-04-21T03:30:26.261Z,101805.11
2019-04-21T03:38:05.367Z,101809.11
2019-04-21T03:40:26.191Z,101816.97
2019-04-21T03:43:10.207Z,101814.02
2019-04-21T03:48:21.264Z,101825.41
2019-04-21T03:50:49.431Z,101819.31
2019-04-21T03:53:20.298Z,101812.76
2019-04-21T03:55:53.093Z,101818.62
2019-04-21T03:58:35.952Z,101816.45
2019-04-21T04:01:16.218Z,101818.67
2019-04-21T04:04:08.409Z,101817.86
2019-04-21T04:06:49.709Z,101812.00
2019-04-21T04:09:21.254Z,101824.31
2019-04-21T04:19:34.723Z,101823.69
2019-04-21T04:22:19.389Z,101819.73
2019-04-21T04:24:39.544Z,101812.87
2019-04-21T04:27:14.809Z,101813.96
2019-04-21T04:29:48.353Z,101816.68
2019-04-21T04:34:59.555Z,101821.29
2019-04-21T04:42:51.476Z,101814.22
2019-04-21T04:45:26.778Z,101813.59
2019-04-21T04:47:49.838Z,101815.78
2019-04-21T04:50:37.356Z,101814.50
2019-04-21T04:53:07.714Z,101812.08
2019-04-21T04:55:33.583Z,101812.42
2019-04-21T05:00:52.099Z,101811.04
2019-04-21T05:03:19.138Z,101805.46
2019-04-21T05:11:39.918Z,101808.91
2019-04-21T05:21:40.481Z,101809.03
2019-04-21T05:24:00.022Z,101818.92
2019-04-21T05:26:41.937Z,101814.18
2019-04-21T05:29:05.209Z,101820.13
2019-04-21T05:34:41.220Z,101823.25
2019-04-21T05:37:14.348Z,101827.91
2019-04-21T05:39:45.149Z,101824.69
2019-04-21T05:42:18.737Z,101826.20
2019-04-21T05:45:01.660Z,101827.42
2019-04-21T05:47:40.126Z,101826.61
2019-04-21T05:50:00.827Z,101825.70
2019-04-21T05:52:37.539Z,101826.28
2019-04-21T05:55:19.978Z,101827.27
2019-04-21T05:57:47.883Z,101832.28
2019-04-21T06:00:23.634Z,101827.17
2019-04-21T06:02:57.896Z,101831.75
2019-04-21T06:05:37.358Z,101831.21
2019-04-21T06:08:10.366Z,101831.88
2019-04-21T06:10:41.910Z,101831.78
2019-04-21T06:13:19.921Z,101831.09
2019-04-21T06:15:51.277Z,101832.91
2019-04-21T06:18:31.382Z,101833.57
2019-04-21T06:23:30.295Z,101833.93
2019-04-21T06:28:42.637Z,101841.73
2019-04-21T06:31:14.619Z,101845.28
2019-04-21T06:33:44.925Z,101845.09
2019-04-21T06:36:31.756Z,101843.11
2019-04-21T06:39:01.749Z,101845.27
2019-04-21T06:49:02.738Z,101853.26
2019-04-21T06:51:48.185Z,101847.91
2019-04-21T06:54:10.007Z,101845.91
2019-04-21T06:56:47.847Z,101851.16
2019-04-21T06:59:14.887Z,101855.22
2019-04-21T07:01:56.702Z,101853.17
2019-04-21T07:04:31.779Z,101854.12
2019-04-21T07:09:31.883Z,101858.52
2019-04-21T07:12:02.295Z,101848.52
2019-04-21T07:14:37.997Z,101853.25
2019-04-21T07:17:12.608Z,101849.89
2019-04-21T07:19:49.840Z,101852.94
2019-04-21T07:22:19.050Z,101858.70
2019-04-21T07:24:53.607Z,101851.48
2019-04-21T07:27:22.200Z,101855.38
2019-04-21T07:29:58.549Z,101853.41
2019-04-21T07:32:34.884Z,101852.50
2019-04-21T07:35:09.414Z,101855.05
2019-04-21T07:37:46.183Z,101848.25
2019-04-21T07:40:05.472Z,101849.17
2019-04-21T07:42:46.965Z,101840.45
2019-04-21T07:45:17.974Z,101843.76
2019-04-21T07:48:12.449Z,101843.63
2019-04-21T07:50:57.818Z,101843.84
2019-04-21T07:53:38.202Z,101845.36
2019-04-21T07:55:50.995Z,101839.81
2019-04-21T07:58:47.639Z,101843.66
2019-04-21T08:01:23.006Z,101841.40
2019-04-21T08:03:45.482Z,101835.31
2019-04-21T08:06:31.909Z,101836.94
2019-04-21T08:08:55.998Z,101843.24
2019-04-21T08:11:25.349Z,101841.94
2019-04-21T08:14:00.588Z,101839.76
2019-04-21T08:16:42.135Z,101830.73
2019-04-21T08:19:13.315Z,101835.95
2019-04-21T08:21:55.806Z,101834.50
2019-04-21T08:24:19.713Z,101839.56
2019-04-21T08:26:55.693Z,101836.73
2019-04-21T08:32:08.044Z,101838.23
2019-04-21T08:34:33.885Z,101834.83
2019-04-21T08:37:13.933Z,101830.81
2019-04-21T08:42:21.590Z,101835.14
2019-04-21T08:44:54.389Z,101833.26
2019-04-21T08:47:28.482Z,101837.20
2019-04-21T08:50:02.136Z,101830.48
2019-04-21T08:52:44.463Z,101827.77
2019-04-21T08:58:56.138Z,101826.36
2019-04-21T09:01:43.035Z,101828.33
2019-04-21T09:04:21.689Z,101824.64
2019-04-21T09:06:58.818Z,101821.68
2019-04-21T09:09:28.900Z,101823.33
2019-04-21T09:12:01.309Z,101828.94
2019-04-21T09:14:36.518Z,101819.63
2019-04-21T09:17:03.251Z,101823.31
2019-04-21T09:19:51.744Z,101819.02
2019-04-21T09:22:12.817Z,101820.68
2019-04-21T09:24:50.290Z,101820.20
2019-04-21T09:27:20.366Z,101816.98
2019-04-21T09:29:49.229Z,101811.35
2019-04-21T09:32:20.260Z,101816.19
2019-04-21T09:34:49.588Z,101812.70
2019-04-21T09:37:36.696Z,101806.58
2019-04-21T09:39:58.887Z,101812.59
2019-04-21T09:42:35.963Z,101816.91
2019-04-21T09:45:07.671Z,101811.27
2019-04-21T09:47:45.045Z,101809.08
2019-04-21T09:50:12.047Z,101808.92
2019-04-21T09:52:52.846Z,101808.22
2019-04-21T09:55:22.778Z,101800.02
2019-04-21T09:57:57.009Z,101801.08
2019-04-21T10:00:29.309Z,101801.19
2019-04-21T10:03:06.028Z,101802.05
2019-04-21T10:05:33.792Z,101803.50
2019-04-21T10:08:05.903Z,101805.34
2019-04-21T10:10:38.355Z,101796.08
2019-04-21T10:13:11.079Z,101797.02
2019-04-21T10:15:46.269Z,101785.23
2019-04-21T10:18:25.074Z,101797.23
2019-04-21T10:20:57.020Z,101791.88
2019-04-21T10:23:29.721Z,101795.45
2019-04-21T10:26:01.357Z,101789.22
2019-04-21T10:28:33.010Z,101781.67
2019-04-21T10:31:06.854Z,101790.16
2019-04-21T10:33:42.069Z,101792.23
2019-04-21T10:36:15.102Z,101787.98
2019-04-21T10:38:51.539Z,101787.03
2019-04-21T10:41:21.385Z,101780.91
2019-04-21T10:43:55.404Z,101777.28
2019-04-21T10:46:27.009Z,101779.00
2019-04-21T10:48:58.924Z,101766.77
2019-04-21T10:51:32.913Z,101775.86
2019-04-21T10:54:06.163Z,101772.53
2019-04-21T10:56:43.259Z,101766.41
2019-04-21T10:59:12.098Z,101773.11
2019-04-21T11:01:45.180Z,101768.16
2019-04-21T11:04:25.325Z,101766.24
2019-04-21T11:06:58.285Z,101756.61
2019-04-21T11:09:29.872Z,101764.98
2019-04-21T11:12:02.031Z,101755.81
2019-04-21T11:14:35.641Z,101760.02
2019-04-21T11:17:07.957Z,101763.72
2019-04-21T11:19:39.339Z,101758.99
2019-04-21T11:22:10.826Z,101758.61
2019-04-21T11:24:42.994Z,101751.30
2019-04-21T11:27:14.978Z,101747.86
2019-04-21T11:29:47.455Z,101745.45
2019-04-21T11:32:19.123Z,101750.50
2019-04-21T11:34:51.662Z,101741.20
2019-04-21T11:37:26.119Z,101731.20
2019-04-21T11:40:03.895Z,101739.07
2019-04-21T11:42:37.837Z,101729.98
2019-04-21T11:45:10.548Z,101731.39
2019-04-21T11:47:43.839Z,101726.41
2019-04-21T11:50:15.427Z,101727.55
2019-04-21T11:52:47.287Z,101727.09
2019-04-21T11:55:18.978Z,101725.97
2019-04-21T11:57:52.814Z,101715.87
2019-04-21T12:00:24.007Z,101717.30
2019-04-21T12:02:55.636Z,101714.97
2019-04-21T12:05:27.649Z,101713.23
2019-04-21T12:08:00.174Z,101711.52
2019-04-21T12:10:31.658Z,101705.81
2019-04-21T12:13:06.170Z,101710.56
2019-04-21T12:15:36.839Z,101705.65
2019-04-21T12:18:08.263Z,101699.38
2019-04-21T12:20:39.858Z,101698.69
2019-04-21T12:23:12.518Z,101703.84
2019-04-21T12:25:47.262Z,101700.33
2019-04-21T12:28:19.719Z,101705.77
2019-04-21T12:30:53.788Z,101700.33
2019-04-21T12:33:28.068Z,101696.42
2019-04-21T12:36:00.012Z,101700.05
2019-04-21T12:38:42.624Z,101693.55
2019-04-21T12:41:06.653Z,101700.22
2019-04-21T12:43:38.963Z,101691.09
2019-04-21T12:46:11.858Z,101692.88
2019-04-21T12:48:44.332Z,101688.38
2019-04-21T12:51:17.638Z,101689.69
2019-04-21T12:53:49.849Z,101684.84
2019-04-21T12:56:21.483Z,101686.98
2019-04-21T12:58:53.339Z,101693.44
2019-04-21T13:01:25.108Z,101685.27
2019-04-21T13:04:03.918Z,101680.49
2019-04-21T13:06:35.537Z,101684.63
2019-04-21T13:09:11.258Z,101676.95
2019-04-21T13:11:41.430Z,101680.49
2019-04-21T13:14:13.719Z,101682.30
2019-04-21T13:16:45.684Z,101688.21
2019-04-21T13:19:17.502Z,101690.48
2019-04-21T13:21:49.904Z,101681.70
2019-04-21T13:24:21.984Z,101686.97
2019-04-21T13:26:58.464Z,101681.34
2019-04-21T13:29:28.163Z,101682.91
2019-04-21T13:32:01.220Z,101678.82
2019-04-21T13:34:33.797Z,101677.83
2019-04-21T13:37:05.787Z,101673.39
2019-04-21T13:40:14.401Z,101678.20
2019-04-21T13:42:34.213Z,101673.02
2019-04-21T13:45:02.217Z,101668.83
2019-04-21T13:47:34.708Z,101668.99
2019-04-21T13:50:08.807Z,101669.02
2019-04-21T13:52:40.910Z,101671.14
2019-04-21T13:55:14.000Z,101676.22
2019-04-21T13:57:46.445Z,101684.81
2019-04-21T14:00:19.419Z,101679.02
2019-04-21T14:02:52.502Z,101670.78
2019-04-21T14:05:24.528Z,101672.94
2019-04-21T14:07:56.499Z,101672.56
2019-04-21T14:10:29.439Z,101673.84
2019-04-21T14:13:02.494Z,101670.80
2019-04-21T14:15:35.804Z,101675.08
2019-04-21T14:18:08.788Z,101678.38
2019-04-21T14:20:40.413Z,101673.20
2019-04-21T14:23:21.079Z,101675.34
2019-04-21T14:25:45.794Z,101676.13
2019-04-21T14:28:18.370Z,101679.84
2019-04-21T14:30:50.458Z,101673.49
2019-04-21T14:33:23.443Z,101676.17
2019-04-21T14:35:56.859Z,101667.70
2019-04-21T14:38:29.417Z,101674.52
2019-04-21T14:41:02.057Z,101674.03
2019-04-21T14:43:34.189Z,101670.13
2019-04-21T14:46:11.046Z,101673.92
2019-04-21T14:49:03.589Z,101667.97
2019-04-21T14:51:40.999Z,101673.20
2019-04-21T14:54:33.150Z,101672.76
2019-04-21T14:57:05.258Z,101674.53
2019-04-21T14:59:37.204Z,101672.34
2019-04-21T15:02:09.845Z,101673.61
2019-04-21T15:04:43.921Z,101673.06
2019-04-21T15:07:15.610Z,101669.45
2019-04-21T15:09:59.660Z,101670.70
2019-04-21T15:12:20.702Z,101664.42
2019-04-21T15:14:52.199Z,101660.77
2019-04-21T15:17:24.930Z,101656.72
2019-04-21T15:20:04.068Z,101659.28
2019-04-21T15:22:30.428Z,101658.30
2019-04-21T15:25:02.819Z,101656.78
2019-04-21T15:27:34.877Z,101652.66
2019-04-21T15:30:09.191Z,101653.86
2019-04-21T15:32:41.992Z,101653.30
2019-04-21T15:35:15.220Z,101653.98
2019-04-21T15:37:46.779Z,101659.25
2019-04-21T15:40:31.491Z,101654.94
2019-04-21T15:42:52.513Z,101656.11
2019-04-21T15:45:24.357Z,101656.97
2019-04-21T15:47:56.374Z,101657.89
2019-04-21T15:50:28.102Z,101659.30
2019-04-21T15:53:01.499Z,101657.78
2019-04-21T15:55:52.937Z,101654.47
2019-04-21T15:58:36.769Z,101656.38
2019-04-21T16:01:26.201Z,101657.42
2019-04-21T16:04:00.420Z,101661.80
2019-04-21T16:06:31.912Z,101663.46
2019-04-21T16:09:06.415Z,101664.08
2019-04-21T16:11:39.779Z,101662.17
2019-04-21T16:14:11.477Z,101665.30
2019-04-21T16:16:45.345Z,101658.89
2019-04-21T16:19:18.674Z,101666.96
2019-04-21T16:21:50.620Z,101669.41
2019-04-21T16:24:23.318Z,101669.97
2019-04-21T16:26:56.466Z,101675.75
2019-04-21T16:29:29.245Z,101680.63
2019-04-21T16:32:01.682Z,101684.24
2019-04-21T16:34:42.708Z,101682.03
2019-04-21T16:37:08.231Z,101684.01
2019-04-21T16:39:41.236Z,101686.73
2019-04-21T16:42:14.129Z,101693.28
2019-04-21T16:44:47.087Z,101692.13
2019-04-21T16:47:19.375Z,101698.91
2019-04-21T16:49:51.925Z,101695.09
2019-04-21T16:52:26.071Z,101695.39
2019-04-21T16:55:08.693Z,101700.31
2019-04-21T16:57:42.003Z,101692.69
2019-04-21T17:00:26.903Z,101697.27
2019-04-21T17:02:48.669Z,101701.34
2019-04-21T17:05:20.448Z,101703.34
2019-04-21T17:07:52.874Z,101703.73
2019-04-21T17:10:24.631Z,101702.41
2019-04-21T17:12:56.127Z,101707.17
2019-04-21T17:15:42.080Z,101705.74
2019-04-21T17:18:20.593Z,101711.03
2019-04-21T17:20:42.028Z,101714.61
2019-04-21T17:23:07.290Z,101713.23
2019-04-21T17:25:39.285Z,101719.31
2019-04-21T17:28:12.089Z,101722.95
2019-04-21T17:30:44.367Z,101718.55
2019-04-21T17:33:21.653Z,101720.08
2019-04-21T17:35:51.032Z,101726.91
2019-04-21T17:38:23.894Z,101734.63
2019-04-21T17:41:09.308Z,101729.59
2019-04-21T17:43:29.947Z,101733.26
2019-04-21T17:46:02.839Z,101730.80
2019-04-21T17:48:34.740Z,101733.33
2019-04-21T17:51:11.850Z,101729.08
2019-04-21T17:53:48.198Z,101728.45
2019-04-21T17:56:42.860Z,101729.50
2019-04-21T17:59:15.262Z,101734.02
2019-04-21T18:01:48.445Z,101730.94
2019-04-21T18:04:18.172Z,101730.38
2019-04-21T18:07:08.621Z,101734.19
2019-04-21T18:09:58.040Z,101733.95
2019-04-21T18:12:18.020Z,101728.98
2019-04-21T18:14:51.295Z,101734.03
2019-04-21T18:17:11.025Z,101730.20
2019-04-21T18:19:45.775Z,101731.32
2019-04-21T18:22:34.503Z,101736.80
2019-04-21T18:25:15.046Z,101739.23
2019-04-21T18:27:42.878Z,101732.29
2019-04-21T18:30:44.560Z,101737.30
2019-04-21T18:33:24.605Z,101742.81
2019-04-21T18:36:00.628Z,101741.20
2019-04-21T18:39:10.218Z,101747.95
2019-04-21T18:41:30.016Z,101742.37
2019-04-21T18:44:33.266Z,101743.48
2019-04-21T18:47:13.880Z,101742.80
2019-04-21T18:49:27.062Z,101745.44
2019-04-21T18:52:08.125Z,101742.17
2019-04-21T18:54:51.524Z,101745.35
2019-04-21T18:57:21.918Z,101747.27
2019-04-21T18:59:46.781Z,101741.63
2019-04-21T19:02:20.506Z,101741.06
2019-04-21T19:04:54.462Z,101747.98
2019-04-21T19:07:48.349Z,101749.94
2019-04-21T19:10:22.725Z,101742.86
2019-04-21T19:15:20.087Z,101744.02
2019-04-21T19:18:27.804Z,101744.55
2019-04-21T19:20:39.429Z,101744.25
2019-04-21T19:23:04.539Z,101743.06
2019-04-21T19:25:41.207Z,101743.75
2019-04-21T19:28:15.321Z,101737.53
2019-04-21T19:30:57.493Z,101741.41
2019-04-21T19:33:20.136Z,101739.25
2019-04-21T19:35:37.232Z,101746.73
2019-04-21T19:38:13.716Z,101747.78
2019-04-21T19:40:56.606Z,101746.06
2019-04-21T19:43:36.484Z,101752.37
2019-04-21T19:46:12.862Z,101748.94
2019-04-21T19:48:54.065Z,101750.12
2019-04-21T19:51:15.154Z,101755.48
2019-04-21T19:53:44.922Z,101753.62
2019-04-21T19:56:07.828Z,101754.62
2019-04-21T19:58:43.503Z,101753.76
2019-04-21T20:01:13.749Z,101754.02
2019-04-21T20:03:49.831Z,101761.23
2019-04-21T20:06:34.179Z,101760.77
2019-04-21T20:09:12.203Z,101758.52
2019-04-21T20:11:41.960Z,101764.51
2019-04-21T20:16:49.304Z,101765.83
2019-04-21T20:19:11.815Z,101762.33
2019-04-21T20:21:40.937Z,101765.37
2019-04-21T20:24:18.531Z,101767.31
2019-04-21T20:26:57.390Z,101763.88
2019-04-21T20:29:46.612Z,101760.83
2019-04-21T20:32:24.680Z,101768.54
2019-04-21T20:34:56.370Z,101766.12
2019-04-21T20:37:21.226Z,101769.03
2019-04-21T20:39:59.815Z,101771.01
2019-04-21T20:42:42.775Z,101776.56
2019-04-21T20:47:40.973Z,101766.73
2019-04-21T20:50:26.754Z,101774.77
2019-04-21T20:53:08.519Z,101771.39
2019-04-21T20:55:39.519Z,101773.97
2019-04-21T20:58:15.512Z,101775.59
2019-04-21T21:03:37.785Z,101775.23
2019-04-21T21:06:08.130Z,101781.34
2019-04-21T21:08:45.079Z,101779.83
2019-04-21T21:11:21.625Z,101779.95
2019-04-21T21:13:54.837Z,101785.13
2019-04-21T21:16:38.514Z,101795.89
2019-04-21T21:21:34.126Z,101781.44
2019-04-21T21:24:08.713Z,101780.13
2019-04-21T21:26:52.122Z,101780.61
2019-04-21T21:29:25.239Z,101780.83
2019-04-21T21:31:55.897Z,101781.93
2019-04-21T21:34:35.510Z,101781.73
2019-04-21T21:37:14.109Z,101783.19
2019-04-21T21:39:51.017Z,101783.73
2019-04-21T21:41:58.621Z,101782.59
2019-04-21T21:44:28.734Z,101779.17
2019-04-21T21:47:17.534Z,101784.12
2019-04-21T21:49:48.142Z,101780.30
2019-04-21T21:52:13.016Z,101781.28
2019-04-21T21:54:40.139Z,101785.70
2019-04-21T21:57:12.402Z,101780.16
2019-04-21T21:59:45.402Z,101779.24
2019-04-21T22:02:31.332Z,101783.86
2019-04-21T22:04:58.294Z,101784.00
2019-04-21T22:07:28.043Z,101784.92
2019-04-21T22:09:58.052Z,101778.52
2019-04-21T22:12:40.409Z,101779.76
2019-04-21T22:15:13.976Z,101780.87
2019-04-21T22:17:54.059Z,101784.50
2019-04-21T22:20:35.665Z,101786.86
2019-04-21T22:22:54.256Z,101785.08
2019-04-21T22:25:25.497Z,101790.38
2019-04-21T22:27:51.547Z,101794.96
2019-04-21T22:30:32.760Z,101792.62
2019-04-21T22:33:02.449Z,101792.59
2019-04-21T22:35:36.684Z,101794.05
2019-04-21T22:38:20.403Z,101790.14
2019-04-21T22:40:50.716Z,101786.77
2019-04-21T22:43:21.714Z,101786.93
2019-04-21T22:45:43.242Z,101782.98
2019-04-21T22:48:19.191Z,101789.13
2019-04-21T22:50:48.581Z,101784.02
2019-04-21T22:53:21.357Z,101790.05
2019-04-21T22:56:00.084Z,101783.29
2019-04-21T22:58:33.159Z,101779.16
2019-04-21T23:01:03.807Z,101791.37
2019-04-21T23:03:35.597Z,101781.05
2019-04-21T23:06:19.579Z,101788.89
2019-04-21T23:08:46.168Z,101783.14
2019-04-21T23:11:19.745Z,101785.50
2019-04-21T23:13:57.901Z,101786.02
2019-04-21T23:16:33.288Z,101789.13
2019-04-21T23:19:15.884Z,101789.34
2019-04-21T23:21:55.449Z,101793.88
2019-04-21T23:24:31.627Z,101796.91
2019-04-21T23:26:53.797Z,101794.49
2019-04-21T23:29:45.160Z,101802.75
2019-04-21T23:32:03.510Z,101793.75
2019-04-21T23:34:28.933Z,101797.88
2019-04-21T23:37:03.231Z,101808.12
2019-04-21T23:39:34.008Z,101797.88
2019-04-21T23:42:05.936Z,101807.97
2019-04-21T23:44:42.847Z,101804.64
2019-04-21T23:47:13.431Z,101807.77
2019-04-21T23:49:53.360Z,101808.22
2019-04-21T23:52:19.775Z,101800.63
2019-04-21T23:54:51.682Z,101801.18
2019-04-21T23:57:31.752Z,101806.95
2019-04-21T23:59:59.141Z,101813.67
